KHFY

Indy South Greenwood Airport

Indianapolis, Indiana, USA
METAR KHFY 150235Z AUTO 00000KT 10SM CLR 21/19 A3003 RMK AO2 T02140193
Observed Flight Rules
Aug-15 @ 02:35 UTC (60 minutes ago) Visual Flight Rules
Visibility Clouds
10 miles
  • Clear skies
Temperatures Readings
Current 21°C / 70°F
Dewpoint 19°C / 66°F
Humidity 88%
Altimeter 30.03" Hg
Pressure 1017 hPa
Elevation 251
METAR KHFY 150235Z AUTO 00000KT 10SM CLR 21/19 A3003 RMK AO2 T02140193
Observed Flight Rules
Aug-15 @ 02:35 UTC
(60 minutes ago)
VFR
Clouds
  • Clear skies
Temperature Dewpoint
21°C / 70°F 19°C / 66°F
Humidity Altimeter Pressure
88% 30.03" Hg 1017 hPa